Time;durP1;ratioP1;P1;durP2;ratioP2;P2;SDS_P1;SDS_P2;PMS_P1;PMS_P2;Temp;Humidity;BMP_temperature;BMP_pressure;BME280_temperature;BME280_humidity;BME280_pressure;Samples;Min_cycle;Max_cycle;Signal;HPM_P1;HPM_P2
2021/04/16 00:05:45;;;;;;;17.02;10.00;;;10.00;68.70;;;;;;12072675;28;20052;-77
2021/04/16 00:11:31;;;;;;;19.40;10.18;;;9.90;69.30;;;;;;12079316;28;20059;-76
2021/04/16 00:17:19;;;;;;;18.05;9.98;;;9.90;69.50;;;;;;12078685;28;20070;-77
2021/04/16 00:23:06;;;;;;;16.42;9.82;;;9.90;69.70;;;;;;12076692;28;20063;-77
2021/04/16 00:28:53;;;;;;;18.55;10.25;;;9.70;70.10;;;;;;12077024;28;20051;-77
2021/04/16 00:34:39;;;;;;;16.08;10.35;;;9.70;70.60;;;;;;12079573;28;20056;-77
2021/04/16 00:40:34;;;;;;;19.75;10.43;;;9.70;70.70;;;;;;12076543;28;20059;-75
2021/04/16 00:46:28;;;;;;;19.15;11.52;;;9.70;71.00;;;;;;12076648;28;20049;-75
2021/04/16 00:52:21;;;;;;;18.50;11.18;;;9.80;71.10;;;;;;12073855;28;20141;-75
2021/04/16 00:58:09;;;;;;;19.77;11.00;;;9.70;70.80;;;;;;12072867;28;20064;-76
2021/04/16 01:03:55;;;;;;;21.75;11.68;;;9.60;71.10;;;;;;12072347;28;20052;-74
2021/04/16 08:23:27;;;;;;;76.35;33.47;;;9.20;77.60;;;;;;12165035;27;20362;-73
2021/04/16 08:29:24;;;;;;;65.40;31.55;;;9.40;74.60;;;;;;12116226;28;20052;-72
2021/04/16 08:35:17;;;;;;;82.25;41.70;;;9.70;73.90;;;;;;12106663;28;20063;-72
2021/04/16 08:41:08;;;;;;;53.75;27.63;;;10.20;73.20;;;;;;12102498;28;20060;-73
2021/04/16 08:46:58;;;;;;;35.80;18.73;;;10.40;71.60;;;;;;12100860;28;20473;-74
2021/04/16 08:52:47;;;;;;;42.17;22.05;;;10.70;71.30;;;;;;12113455;28;20391;-73
2021/04/16 08:58:38;;;;;;;33.35;13.88;;;10.80;69.00;;;;;;12114180;28;20056;-73
2021/04/16 09:04:48;;;;;;;33.92;13.95;;;10.90;67.70;;;;;;12108939;28;20081;-74
2021/04/16 09:10:43;;;;;;;53.83;24.52;;;10.80;65.50;;;;;;12113351;28;20129;-73
2021/04/16 09:16:53;;;;;;;52.13;22.67;;;10.70;67.10;;;;;;12114986;28;20052;-74
2021/04/16 09:22:43;;;;;;;33.85;15.02;;;10.70;67.90;;;;;;12109852;28;20056;-74
2021/04/16 09:28:35;;;;;;;32.95;15.90;;;10.80;66.60;;;;;;12114571;28;20048;-74
2021/04/16 09:34:26;;;;;;;34.33;13.93;;;10.90;65.30;;;;;;12080739;28;20079;-73
2021/04/16 09:40:32;;;;;;;35.72;15.07;;;11.10;65.10;;;;;;12076737;28;20044;-74
2021/04/16 09:46:47;;;;;;;18.92;8.05;;;11.20;65.20;;;;;;12082617;28;20101;-73
2021/04/16 09:52:51;;;;;;;15.63;8.45;;;11.00;60.30;;;;;;12078635;28;20055;-74
2021/04/16 09:59:07;;;;;;;;;;;11.00;62.30;;;;;;12077266;28;20040;-73
2021/04/16 10:05:01;;;;;;;12.75;6.85;;;11.30;59.20;;;;;;12075191;28;19924;-74
2021/04/16 10:10:49;;;;;;;;;;;11.60;59.30;;;;;;12075683;28;20047;-74
2021/04/16 10:16:35;;;;;;;19.08;9.32;;;12.00;60.10;;;;;;12078413;28;20326;-74
2021/04/16 10:22:25;;;;;;;22.08;9.55;;;11.90;60.10;;;;;;12078141;28;20052;-72
2021/04/16 12:37:59;;;;;;;11.30;6.57;;;13.00;52.90;;;;;;12062184;28;20067;-73
2021/04/16 12:43:47;;;;;;;12.23;6.93;;;13.40;52.00;;;;;;12066561;28;20149;-73
2021/04/16 12:49:34;;;;;;;14.50;7.10;;;13.90;52.30;;;;;;12072723;28;20044;-73
2021/04/16 12:55:22;;;;;;;12.73;7.45;;;14.10;50.30;;;;;;12069634;28;20093;-74
2021/04/16 13:01:15;;;;;;;14.57;8.32;;;13.60;51.40;;;;;;12069926;28;20097;-74
2021/04/16 13:07:03;;;;;;;23.45;12.43;;;13.30;53.10;;;;;;12074435;28;20476;-74
2021/04/16 13:12:50;;;;;;;15.05;8.65;;;13.10;53.60;;;;;;12077090;28;20059;-74
2021/04/16 13:18:39;;;;;;;11.88;7.65;;;13.00;54.10;;;;;;12080434;28;20055;-75
2021/04/16 13:24:25;;;;;;;13.98;9.02;;;12.90;53.40;;;;;;12078284;28;20056;-73
2021/04/16 13:30:17;;;;;;;19.83;9.30;;;12.40;53.90;;;;;;12076481;28;20048;-74
2021/04/16 13:36:06;;;;;;;11.45;8.57;;;12.30;55.10;;;;;;12083544;28;20051;-74
2021/04/16 13:41:52;;;;;;;14.77;9.43;;;12.40;55.00;;;;;;12078515;28;20102;-74
2021/04/16 13:47:43;;;;;;;19.25;9.13;;;12.10;55.70;;;;;;12076090;28;20571;-74
2021/04/16 13:53:29;;;;;;;16.65;10.90;;;12.20;55.50;;;;;;12077775;28;20036;-74
2021/04/16 13:59:16;;;;;;;11.00;8.10;;;12.40;55.40;;;;;;12082156;28;20259;-74
2021/04/16 14:05:05;;;;;;;16.05;8.00;;;12.30;54.20;;;;;;12081277;28;20055;-74
2021/04/16 14:10:51;;;;;;;13.38;6.75;;;12.50;55.00;;;;;;12078163;28;20045;-74
2021/04/16 14:16:40;;;;;;;12.05;6.93;;;12.30;52.60;;;;;;12079837;28;20067;-74
2021/04/16 14:22:33;;;;;;;11.10;7.32;;;12.30;53.50;;;;;;12081023;28;20503;-73
2021/04/16 14:28:21;;;;;;;16.08;6.43;;;12.20;53.70;;;;;;12078878;28;20044;-73
2021/04/16 14:34:08;;;;;;;12.50;6.68;;;12.00;53.80;;;;;;12078214;28;20052;-73
2021/04/16 14:39:55;;;;;;;11.48;6.47;;;12.30;54.70;;;;;;12074818;28;20056;-73
2021/04/16 14:45:44;;;;;;;10.75;7.10;;;12.60;53.90;;;;;;12078708;28;20059;-74
2021/04/16 14:51:31;;;;;;;14.55;7.68;;;12.60;53.40;;;;;;12078494;28;20048;-73
2021/04/16 14:57:24;;;;;;;10.80;6.75;;;12.60;54.00;;;;;;12074656;28;20498;-73
2021/04/16 15:03:11;;;;;;;10.43;7.47;;;12.40;52.50;;;;;;12074308;28;21478;-74
2021/04/16 15:09:03;;;;;;;10.88;6.45;;;12.50;53.40;;;;;;12073054;28;20044;-74
2021/04/16 15:14:52;;;;;;;9.70;6.13;;;12.60;53.10;;;;;;12074647;28;20070;-74
2021/04/16 15:20:41;;;;;;;9.10;6.38;;;12.70;53.10;;;;;;12080204;28;20048;-73
2021/04/16 15:26:27;;;;;;;15.38;6.93;;;12.80;53.00;;;;;;12068373;28;20097;-74
2021/04/16 15:32:19;;;;;;;10.13;5.93;;;12.90;52.80;;;;;;12077143;28;20106;-74
2021/04/16 15:50:20;;;;;;;11.38;6.25;;;13.00;52.80;;;;;;12072885;28;20044;-74
2021/04/16 15:56:07;;;;;;;12.07;6.53;;;12.90;53.30;;;;;;12074561;28;20063;-74
2021/04/16 16:01:54;;;;;;;8.75;5.35;;;12.90;53.30;;;;;;12073474;28;20044;-74
2021/04/16 16:07:41;;;;;;;12.75;6.13;;;12.70;53.30;;;;;;12075074;28;20423;-74
2021/04/16 16:13:32;;;;;;;391.08;206.48;;;12.50;53.70;;;;;;12073707;28;20383;-76
2021/04/16 16:19:19;;;;;;;7.97;5.93;;;12.50;54.70;;;;;;12074471;28;20049;-75
2021/04/16 16:25:08;;;;;;;11.75;6.95;;;12.70;54.30;;;;;;12072043;28;20052;-75
2021/04/16 16:30:56;;;;;;;9.90;6.57;;;12.70;53.90;;;;;;12073379;28;20530;-76
2021/04/16 16:36:42;;;;;;;13.57;7.53;;;12.50;54.30;;;;;;12076512;28;20100;-76
2021/04/16 16:42:34;;;;;;;13.93;6.60;;;12.50;53.90;;;;;;12077305;28;20049;-76
2021/04/16 16:48:20;;;;;;;11.10;6.93;;;12.40;54.10;;;;;;12086173;28;20131;-76
2021/04/16 16:54:07;;;;;;;14.48;7.55;;;12.30;55.30;;;;;;12079654;28;20057;-75
2021/04/16 16:59:55;;;;;;;10.15;6.10;;;12.50;55.20;;;;;;12081518;28;20059;-77
2021/04/16 17:05:42;;;;;;;14.38;8.23;;;12.50;55.60;;;;;;12083496;28;20047;-76
2021/04/16 17:11:31;;;;;;;9.52;6.85;;;12.50;56.40;;;;;;12080280;28;20487;-75
2021/04/16 17:17:21;;;;;;;11.85;6.97;;;12.20;56.70;;;;;;12095060;28;20102;-75
2021/04/16 17:23:08;;;;;;;12.52;6.90;;;12.40;57.20;;;;;;12070057;28;20098;-75
2021/04/16 17:28:55;;;;;;;8.48;6.57;;;12.40;57.20;;;;;;12080912;28;20075;-76
2021/04/16 17:34:46;;;;;;;10.07;6.90;;;12.30;56.90;;;;;;12094662;28;20048;-75
2021/04/16 17:40:33;;;;;;;10.32;7.10;;;12.20;57.20;;;;;;12094445;28;20037;-75
2021/04/16 17:46:20;;;;;;;8.52;6.63;;;12.20;58.90;;;;;;12079426;28;20498;-76
2021/04/16 17:52:07;;;;;;;10.20;6.70;;;12.30;58.20;;;;;;12081830;28;20051;-75
2021/04/16 17:57:54;;;;;;;10.45;7.30;;;12.30;58.70;;;;;;12076908;28;20056;-75
2021/04/16 18:03:41;;;;;;;38.67;22.73;;;12.20;58.90;;;;;;12075315;28;20048;-75
2021/04/16 18:09:28;;;;;;;10.68;7.25;;;12.20;59.00;;;;;;12073492;28;20069;-75
2021/04/16 18:15:14;;;;;;;11.80;7.47;;;12.10;58.90;;;;;;12076577;28;20063;-76
2021/04/16 18:21:04;;;;;;;12.50;7.15;;;12.20;59.60;;;;;;12071491;28;20067;-77
2021/04/16 18:27:00;;;;;;;11.95;6.88;;;12.20;59.60;;;;;;12081901;28;20052;-77
2021/04/16 18:32:47;;;;;;;10.73;6.75;;;12.10;59.90;;;;;;12076569;28;20059;-76
2021/04/16 18:38:36;;;;;;;11.00;7.13;;;12.20;59.10;;;;;;12074347;28;20487;-77
2021/04/16 18:44:27;;;;;;;13.98;7.55;;;12.10;59.20;;;;;;12102733;28;20066;-75
2021/04/16 18:50:17;;;;;;;9.55;6.47;;;12.00;59.70;;;;;;12074276;28;20491;-76
2021/04/16 18:56:07;;;;;;;10.73;7.05;;;12.10;60.10;;;;;;12080709;28;20086;-75
2021/04/16 19:02:01;;;;;;;11.27;7.05;;;12.10;60.10;;;;;;12092429;28;20048;-74
2021/04/16 19:07:48;;;;;;;;;;;12.10;59.80;;;;;;12083932;28;20427;-76
2021/04/16 19:13:34;;;;;;;11.77;7.60;;;12.00;60.00;;;;;;12081627;28;19978;-76
2021/04/16 19:19:22;;;;;;;16.05;7.93;;;12.00;59.90;;;;;;12086294;28;20063;-76
2021/04/16 19:25:15;;;;;;;10.20;7.32;;;12.10;60.40;;;;;;12077485;28;20574;-73
2021/04/16 19:31:10;;;;;;;11.65;6.85;;;12.10;59.80;;;;;;12073506;28;20441;-73
2021/04/16 19:36:59;;;;;;;12.45;7.38;;;12.20;60.40;;;;;;12075401;28;20062;-73
2021/04/16 19:42:46;;;;;;;11.80;7.60;;;12.20;60.70;;;;;;12068783;28;20057;-73
2021/04/16 20:19:15;;;;;;;13.15;8.20;;;12.00;61.20;;;;;;12052159;28;20058;-73
2021/04/16 20:25:04;;;;;;;11.90;8.60;;;11.90;61.30;;;;;;12069244;28;20059;-73
2021/04/16 20:30:55;;;;;;;12.60;8.48;;;11.90;61.20;;;;;;12073450;28;20048;-74
2021/04/16 20:36:42;;;;;;;13.40;8.13;;;11.90;61.70;;;;;;12071360;28;20049;-74
2021/04/16 20:42:30;;;;;;;13.32;8.60;;;12.00;61.30;;;;;;12070307;28;20502;-73
2021/04/16 20:48:21;;;;;;;11.52;8.40;;;11.90;61.40;;;;;;12070628;28;20087;-74
2021/04/16 20:54:10;;;;;;;13.93;8.63;;;12.00;61.50;;;;;;12070554;28;20056;-73
2021/04/16 21:00:00;;;;;;;13.98;8.55;;;12.00;61.40;;;;;;12069624;28;20098;-78
2021/04/16 21:06:02;;;;;;;13.85;8.38;;;11.90;61.30;;;;;;12077042;28;20056;-73
2021/04/16 21:11:49;;;;;;;12.27;8.70;;;11.80;61.10;;;;;;12068320;28;20062;-74
2021/04/16 21:17:36;;;;;;;12.63;9.13;;;11.80;61.20;;;;;;12072568;28;20052;-77
2021/04/16 21:23:27;;;;;;;14.75;9.23;;;11.80;61.20;;;;;;12071342;28;20732;-82
2021/04/16 21:29:16;;;;;;;17.05;9.38;;;11.80;61.30;;;;;;12081648;28;20044;-76
2021/04/16 21:35:12;;;;;;;12.73;8.52;;;11.80;61.40;;;;;;12079163;28;20071;-76
2021/04/16 21:41:02;;;;;;;11.65;8.40;;;11.90;61.60;;;;;;12079270;28;20048;-78
2021/04/16 21:46:51;;;;;;;17.83;9.48;;;12.00;61.20;;;;;;12078855;28;20051;-77
2021/04/16 21:52:39;;;;;;;14.55;8.98;;;12.00;61.10;;;;;;12081845;28;20052;-77
2021/04/16 21:58:27;;;;;;;16.42;8.75;;;11.80;61.50;;;;;;12081178;28;20048;-77
2021/04/16 22:04:21;;;;;;;14.95;9.23;;;11.90;61.10;;;;;;12080479;28;21017;-78
2021/04/16 22:10:14;;;;;;;15.60;9.45;;;12.00;61.10;;;;;;12079360;28;20526;-77
